Morristown, Indiana
Current Conditions -  °F | °C
As of 6:53 AM on Monday 22 Dec 2014 (Local Time) from KGEZ Reporting Station
Overcast Overcast  
Wind Chill: 27°   Ceiling: 4000
Heat Index: 34°   Visibility: 9mi
Dew Point: 29°   Wind: 8mph
Humidity: 82%   Direction: 110°ESE
Pressure: 29.98"   Gusts: NA
Location:  39.67°N, 85.7°W
Report Text: KGEZ 221153Z AUTO 11007KT 9SM OVC040 01/M02 A2998 RMK AO2 SLP157 T00111017 10011 21017 56011
Loading
Personal Weather Stations






























Interactive Weather Map New forecast layout! Learn more

10-Day Weather Forecast

Advertisements
Track Severe Weather on mobile